No.10 Hasshomaru — JD2992 — position and weather

sailwx.info

Track history (hours):
 
Tides and Currents Weather Stations Pressure Air Temp Water Temp Dewpoint Dewpoint Depression Visibility Wind Speed Wind Dir Waves Ship Positions

No.10 Hasshomaru

Last reported at 2016-May-21 09:23 UTC. Time now 2016-May-26 08:49 UTC.
Position N 34°28' E 134°32'.

Length 105 m; draft 5 m.

Type: Tanker. MMSI: 431001112.

Date/timePositionNaut miles runAvg speedWind from/ knotsBaromVisibWave heightAir tempDewpointWater temp
2016-May-21 09:23N 34°28' E 134°32'1514.9
2016-May-21 08:21N 34°34' E 134°49'1113.8
2016-May-21 07:33N 34°37' E 135°02'5 4.7
2016-May-21 06:25N 34°39' E 135°08'0 0.0
2016-May-21 05:25N 34°39' E 135°08'0 0.0
2016-May-21 04:31N 34°39' E 135°08'0 0.0
2016-May-21 03:19N 34°39' E 135°08'1 1.4
2016-May-21 02:31N 34°37' E 135°08'0 0.0
2016-May-21 01:31N 34°37' E 135°08'0 0.0
2016-May-21 00:19N 34°37' E 135°08'0 0.1
2016-May-20 23:33N 34°37' E 135°08'7 7.2
2016-May-20 22:33N 34°37' E 134°59'  
2016-May-12 08:32N 34°36' E 134°54'1111.1
2016-May-12 07:33N 34°37' E 135°08'2 1.3
2016-May-12 06:06N 34°39' E 135°08'0 0.0
2016-May-12 05:30N 34°39' E 135°08'0 0.0
2016-May-12 03:21N 34°39' E 135°08'1 1.8
2016-May-12 02:34N 34°37' E 135°09'0 0.1
2016-May-12 01:22N 34°37' E 135°09'0 0.0
2016-May-12 00:28N 34°37' E 135°09'0 0.0
2016-May-11 18:28N 34°37' E 135°09'0 0.0
2016-May-11 17:28N 34°37' E 135°09'0 0.0
2016-May-11 16:28N 34°37' E 135°09'0 0.0
2016-May-11 15:22N 34°37' E 135°09'0 0.0
2016-May-11 14:28N 34°37' E 135°09'2 2.4
2016-May-11 13:33N 34°36' E 135°07'10 9.6
2016-May-11 12:32N 34°36' E 134°55'  
Track history (hours):
 
Tides and Currents Weather Stations Pressure Air Temp Water Temp Dewpoint Dewpoint Depression Visibility Wind Speed Wind Dir Waves Ship Positions

No.10 Hasshomaru

Last reported at 2016-May-21 09:23 UTC. Time now 2016-May-26 08:49 UTC.
Position N 34°28' E 134°32'.

Length 105 m; draft 5 m.

Type: Tanker. MMSI: 431001112.

Date/timePositionNaut miles runAvg speedWind from/ knotsBaromVisibWave heightAir tempDewpointWater temp
2016-May-21 09:23N 34°28' E 134°32'1514.9
2016-May-21 08:21N 34°34' E 134°49'1113.8
2016-May-21 07:33N 34°37' E 135°02'5 4.7
2016-May-21 06:25N 34°39' E 135°08'0 0.0
2016-May-21 05:25N 34°39' E 135°08'0 0.0
2016-May-21 04:31N 34°39' E 135°08'0 0.0
2016-May-21 03:19N 34°39' E 135°08'1 1.4
2016-May-21 02:31N 34°37' E 135°08'0 0.0
2016-May-21 01:31N 34°37' E 135°08'0 0.0
2016-May-21 00:19N 34°37' E 135°08'0 0.1
2016-May-20 23:33N 34°37' E 135°08'7 7.2
2016-May-20 22:33N 34°37' E 134°59'  
2016-May-12 08:32N 34°36' E 134°54'1111.1
2016-May-12 07:33N 34°37' E 135°08'2 1.3
2016-May-12 06:06N 34°39' E 135°08'0 0.0
2016-May-12 05:30N 34°39' E 135°08'0 0.0
2016-May-12 03:21N 34°39' E 135°08'1 1.8
2016-May-12 02:34N 34°37' E 135°09'0 0.1
2016-May-12 01:22N 34°37' E 135°09'0 0.0
2016-May-12 00:28N 34°37' E 135°09'0 0.0
2016-May-11 18:28N 34°37' E 135°09'0 0.0
2016-May-11 17:28N 34°37' E 135°09'0 0.0
2016-May-11 16:28N 34°37' E 135°09'0 0.0
2016-May-11 15:22N 34°37' E 135°09'0 0.0
2016-May-11 14:28N 34°37' E 135°09'2 2.4
2016-May-11 13:33N 34°36' E 135°07'10 9.6
2016-May-11 12:32N 34°36' E 134°55'  

Dump ship's entire track history